createdAt,value
2018-11-27T00:00:49.511Z,-1.03
2018-11-27T00:03:19.196Z,-1.08
2018-11-27T00:05:48.799Z,-1.04
2018-11-27T00:08:18.510Z,-1.16
2018-11-27T00:10:48.225Z,-1.23
2018-11-27T00:13:17.847Z,-1.19
2018-11-27T00:15:47.426Z,-1.11
2018-11-27T00:18:17.552Z,-1.17
2018-11-27T00:20:47.138Z,-1.21
2018-11-27T00:23:16.719Z,-1.12
2018-11-27T00:25:46.374Z,-1.14
2018-11-27T00:28:15.969Z,-1.00
2018-11-27T00:30:45.661Z,-1.12
2018-11-27T00:33:15.294Z,-1.04
2018-11-27T00:35:44.911Z,-1.17
2018-11-27T00:38:14.528Z,-1.13
2018-11-27T00:40:44.139Z,-1.08
2018-11-27T00:43:13.826Z,-1.09
2018-11-27T00:45:43.455Z,-1.03
2018-11-27T00:48:13.037Z,-1.05
2018-11-27T00:50:42.656Z,-1.01
2018-11-27T00:53:12.341Z,-1.11
2018-11-27T00:55:42.010Z,-1.08
2018-11-27T00:58:11.569Z,-1.09
2018-11-27T01:00:41.158Z,-1.02
2018-11-27T01:03:10.865Z,-1.01
2018-11-27T01:05:40.768Z,-0.99
2018-11-27T01:08:10.476Z,-0.97
2018-11-27T01:10:40.136Z,-0.91
2018-11-27T01:13:09.732Z,-0.96
2018-11-27T01:15:39.399Z,-1.02
2018-11-27T01:18:08.989Z,-1.00
2018-11-27T01:20:38.638Z,-1.05
2018-11-27T01:23:08.899Z,-1.04
2018-11-27T01:25:39.347Z,-1.08
2018-11-27T01:28:09.057Z,-1.15
2018-11-27T01:30:38.674Z,-1.11
2018-11-27T01:33:08.341Z,-1.09
2018-11-27T01:35:38.095Z,-1.19
2018-11-27T01:38:07.689Z,-1.23
2018-11-27T01:40:37.406Z,-1.17
2018-11-27T01:43:07.331Z,-1.22
2018-11-27T01:45:37.032Z,-1.18
2018-11-27T01:48:06.809Z,-1.20
2018-11-27T01:50:36.541Z,-1.26
2018-11-27T01:53:06.717Z,-1.25
2018-11-27T01:55:36.349Z,-1.25
2018-11-27T01:58:06.585Z,-1.24
2018-11-27T02:00:36.402Z,-1.22
2018-11-27T02:03:06.009Z,-1.25
2018-11-27T02:05:35.595Z,-1.27
2018-11-27T02:08:05.425Z,-1.29
2018-11-27T02:10:35.059Z,-1.28
2018-11-27T02:13:04.735Z,-1.33
2018-11-27T02:15:34.396Z,-1.31
2018-11-27T02:18:04.009Z,-1.31
2018-11-27T02:20:33.834Z,-1.26
2018-11-27T02:23:03.458Z,-1.21
2018-11-27T02:25:33.067Z,-1.20
2018-11-27T02:28:02.783Z,-1.18
2018-11-27T02:30:32.359Z,-1.17
2018-11-27T02:33:02.086Z,-1.11
2018-11-27T02:35:31.757Z,-1.11
2018-11-27T02:38:01.431Z,-1.20
2018-11-27T02:40:31.107Z,-1.20
2018-11-27T02:43:00.796Z,-1.12
2018-11-27T02:45:30.523Z,-1.16
2018-11-27T02:48:00.135Z,-1.17
2018-11-27T02:50:29.791Z,-1.12
2018-11-27T02:52:59.350Z,-1.11
2018-11-27T02:55:28.987Z,-1.15
2018-11-27T02:57:58.581Z,-1.16
2018-11-27T03:00:28.960Z,-1.17
2018-11-27T03:02:58.701Z,-1.14
2018-11-27T03:05:36.910Z,-1.11
2018-11-27T03:08:06.812Z,-1.12
2018-11-27T03:10:36.390Z,-1.08
2018-11-27T03:13:07.109Z,-1.12
2018-11-27T03:15:36.804Z,-1.10
2018-11-27T03:18:07.192Z,-1.08
2018-11-27T03:20:36.800Z,-1.09
2018-11-27T03:23:07.121Z,-1.09
2018-11-27T03:25:37.219Z,-1.10
2018-11-27T03:28:07.708Z,-1.11
2018-11-27T03:30:37.308Z,-1.04
2018-11-27T03:33:07.171Z,-1.17
2018-11-27T03:35:36.819Z,-1.16
2018-11-27T03:38:07.100Z,-1.09
2018-11-27T03:40:36.694Z,-1.05
2018-11-27T03:43:06.522Z,-1.16
2018-11-27T03:45:36.427Z,-1.16
2018-11-27T03:48:06.541Z,-1.19
2018-11-27T03:50:36.171Z,-1.25
2018-11-27T03:53:06.047Z,-1.27
2018-11-27T03:55:36.175Z,-1.21
2018-11-27T03:58:05.857Z,-1.29
2018-11-27T04:00:35.570Z,-1.26
2018-11-27T04:03:11.027Z,-1.25
2018-11-27T04:05:41.436Z,-1.19
2018-11-27T04:08:11.539Z,-1.23
2018-11-27T04:10:42.357Z,-1.26
2018-11-27T04:13:12.007Z,-1.21
2018-11-27T04:15:41.733Z,-1.25
2018-11-27T04:18:11.328Z,-1.21
2018-11-27T04:20:41.073Z,-1.13
2018-11-27T04:23:10.670Z,-1.13
2018-11-27T04:25:40.357Z,-1.26
2018-11-27T04:28:10.007Z,-1.19
2018-11-27T04:30:39.674Z,-1.18
2018-11-27T04:33:09.619Z,-1.21
2018-11-27T04:35:39.251Z,-1.21
2018-11-27T04:38:08.831Z,-1.11
2018-11-27T04:40:38.455Z,-1.23
2018-11-27T04:43:08.090Z,-1.24
2018-11-27T04:45:37.705Z,-1.20
2018-11-27T04:48:07.424Z,-1.19
2018-11-27T04:50:37.212Z,-1.22
2018-11-27T04:53:07.457Z,-1.19
2018-11-27T04:55:37.156Z,-1.13
2018-11-27T04:58:07.029Z,-1.13
2018-11-27T05:00:36.650Z,-1.25
2018-11-27T05:03:06.992Z,-1.25
2018-11-27T05:05:36.815Z,-1.21
2018-11-27T05:08:06.920Z,-1.20
2018-11-27T05:10:36.617Z,-1.26
2018-11-27T05:13:07.013Z,-1.16
2018-11-27T05:15:36.666Z,-1.19
2018-11-27T05:18:06.693Z,-1.10
2018-11-27T05:20:36.467Z,-1.23
2018-11-27T05:23:07.291Z,-1.24
2018-11-27T05:25:36.957Z,-1.22
2018-11-27T05:28:06.863Z,-1.22
2018-11-27T05:30:36.649Z,-1.11
2018-11-27T05:33:07.074Z,-1.12
2018-11-27T05:35:36.747Z,-1.15
2018-11-27T05:38:07.357Z,-1.25
2018-11-27T05:40:37.022Z,-1.23
2018-11-27T05:43:10.330Z,-1.27
2018-11-27T05:45:40.026Z,-1.21
2018-11-27T05:48:09.766Z,-1.18
2018-11-27T05:50:39.488Z,-1.13
2018-11-27T05:53:09.249Z,-1.17
2018-11-27T05:55:39.063Z,-1.23
2018-11-27T05:58:08.628Z,-1.31
2018-11-27T06:00:38.376Z,-1.38
2018-11-27T06:03:10.500Z,-1.41
2018-11-27T06:05:40.356Z,-1.38
2018-11-27T06:08:10.162Z,-1.40
2018-11-27T06:10:39.863Z,-1.45
2018-11-27T06:13:09.447Z,-1.53
2018-11-27T06:15:39.074Z,-1.49
2018-11-27T06:18:08.781Z,-1.66
2018-11-27T06:20:38.450Z,-1.73
2018-11-27T06:23:08.377Z,-1.72
2018-11-27T06:25:38.097Z,-1.61
2018-11-27T06:28:09.159Z,-1.55
2018-11-27T06:30:39.226Z,-1.48
2018-11-27T06:33:08.849Z,-1.52
2018-11-27T06:35:43.516Z,-1.50
2018-11-27T06:38:13.322Z,-1.54
2018-11-27T06:40:43.810Z,-1.69
2018-11-27T06:43:14.326Z,-1.61
2018-11-27T06:45:44.959Z,-1.58
2018-11-27T06:48:14.698Z,-1.65
2018-11-27T06:50:44.279Z,-1.62
2018-11-27T06:53:14.014Z,-1.69
2018-11-27T06:55:43.726Z,-1.66
2018-11-27T06:58:13.411Z,-1.72
2018-11-27T07:00:43.648Z,-1.66
2018-11-27T07:03:14.648Z,-1.75
2018-11-27T07:05:44.269Z,-1.87
2018-11-27T07:08:13.906Z,-1.90
2018-11-27T07:10:45.638Z,-2.02
2018-11-27T07:13:21.408Z,-2.08
2018-11-27T07:15:52.037Z,-2.08
2018-11-27T07:18:21.955Z,-2.17
2018-11-27T07:20:51.639Z,-2.09
2018-11-27T07:23:21.374Z,-2.04
2018-11-27T07:25:51.222Z,-2.15
2018-11-27T07:28:20.982Z,-2.15
2018-11-27T07:30:50.672Z,-2.05
2018-11-27T07:33:20.298Z,-2.07
2018-11-27T07:35:50.216Z,-1.89
2018-11-27T07:38:19.926Z,-1.79
2018-11-27T07:40:49.637Z,-1.70
2018-11-27T07:43:19.438Z,-1.59
2018-11-27T07:45:49.357Z,-1.53
2018-11-27T07:48:19.056Z,-1.39
2018-11-27T07:50:48.619Z,-1.41
2018-11-27T07:53:18.485Z,-1.28
2018-11-27T07:55:48.078Z,-1.06
2018-11-27T07:58:17.891Z,-0.92
2018-11-27T08:00:47.495Z,-0.82
2018-11-27T08:03:17.202Z,-0.70
2018-11-27T08:05:46.840Z,-0.49
2018-11-27T08:08:18.658Z,-0.32
2018-11-27T08:10:49.624Z,-0.12
2018-11-27T08:13:19.206Z,-0.26
2018-11-27T08:15:48.815Z,-0.44
2018-11-27T08:18:18.401Z,-0.23
2018-11-27T08:20:48.029Z,-0.12
2018-11-27T08:23:17.671Z,-0.11
2018-11-27T08:25:47.346Z,-0.08
2018-11-27T08:28:17.046Z,0.06
2018-11-27T08:30:46.654Z,0.49
2018-11-27T08:33:16.261Z,0.50
2018-11-27T08:35:45.905Z,0.66
2018-11-27T08:38:15.492Z,0.74
2018-11-27T08:40:45.076Z,0.75
2018-11-27T08:43:14.837Z,0.89
2018-11-27T08:45:44.399Z,0.96
2018-11-27T08:48:13.975Z,1.41
2018-11-27T08:50:43.532Z,1.72
2018-11-27T08:53:13.102Z,1.81
2018-11-27T08:55:44.759Z,1.97
2018-11-27T08:58:20.406Z,2.19
2018-11-27T09:00:50.258Z,2.62
2018-11-27T09:03:19.897Z,2.54
2018-11-27T09:05:49.407Z,2.13
2018-11-27T09:08:19.134Z,2.59
2018-11-27T09:10:48.705Z,2.33
2018-11-27T09:13:18.489Z,2.56
2018-11-27T09:15:48.172Z,2.38
2018-11-27T09:18:24.335Z,2.40
2018-11-27T09:20:54.021Z,2.43
2018-11-27T09:23:23.583Z,2.58
2018-11-27T09:25:53.298Z,3.29
2018-11-27T09:28:22.910Z,3.24
2018-11-27T09:30:52.545Z,3.87
2018-11-27T09:33:22.254Z,3.49
2018-11-27T09:35:52.577Z,3.53
2018-11-27T09:38:22.242Z,3.64
2018-11-27T09:40:52.026Z,3.72
2018-11-27T09:43:21.705Z,3.52
2018-11-27T09:45:51.828Z,3.02
2018-11-27T09:48:21.426Z,3.33
2018-11-27T09:50:50.998Z,3.60
2018-11-27T09:53:20.645Z,3.62
2018-11-27T09:55:50.286Z,3.68
2018-11-27T09:58:19.956Z,4.05
2018-11-27T10:00:49.791Z,4.13
2018-11-27T10:03:19.417Z,4.36
2018-11-27T10:05:49.018Z,5.07
2018-11-27T10:08:18.597Z,4.82
2018-11-27T10:10:48.422Z,5.31
2018-11-27T10:13:18.096Z,4.92
2018-11-27T10:15:47.845Z,4.94
2018-11-27T10:18:17.700Z,4.37
2018-11-27T10:20:47.737Z,4.04
2018-11-27T10:23:17.757Z,4.11
2018-11-27T10:25:47.570Z,3.93
2018-11-27T10:28:17.477Z,3.90
2018-11-27T10:30:47.901Z,3.96
2018-11-27T10:33:17.827Z,3.65
2018-11-27T10:35:50.931Z,3.39
2018-11-27T10:38:20.915Z,3.00
2018-11-27T10:40:50.659Z,3.00
2018-11-27T10:43:20.332Z,3.14
2018-11-27T10:45:50.028Z,2.99
2018-11-27T10:48:19.835Z,2.95
2018-11-27T10:50:49.758Z,2.72
2018-11-27T10:53:19.657Z,2.71
2018-11-27T10:55:49.266Z,2.52
2018-11-27T10:58:19.087Z,2.42
2018-11-27T11:00:52.816Z,2.33
2018-11-27T11:03:26.586Z,2.51
2018-11-27T11:05:56.917Z,2.48
2018-11-27T11:08:26.545Z,2.80
2018-11-27T11:10:56.156Z,3.03
2018-11-27T11:13:25.900Z,3.33
2018-11-27T11:15:55.721Z,3.55
2018-11-27T11:18:25.446Z,3.69
2018-11-27T11:20:55.226Z,3.53
2018-11-27T11:23:25.078Z,3.17
2018-11-27T11:25:54.686Z,3.25
2018-11-27T11:28:30.750Z,3.58
2018-11-27T11:31:00.532Z,3.65
2018-11-27T11:33:30.358Z,3.72
2018-11-27T11:36:00.264Z,3.70
2018-11-27T11:38:29.983Z,3.77
2018-11-27T11:40:59.795Z,3.85
2018-11-27T11:43:29.429Z,3.65
2018-11-27T11:45:59.218Z,3.46
2018-11-27T11:48:29.158Z,3.59
2018-11-27T11:50:58.803Z,3.37
2018-11-27T11:53:28.543Z,3.18
2018-11-27T11:55:58.356Z,3.08
2018-11-27T11:58:28.266Z,3.12
2018-11-27T12:00:58.481Z,2.83
2018-11-27T12:03:28.310Z,2.76
2018-11-27T12:05:57.930Z,2.24
2018-11-27T12:08:27.612Z,2.18
2018-11-27T12:10:58.905Z,1.94
2018-11-27T12:13:29.148Z,2.21
2018-11-27T12:15:59.744Z,2.00
2018-11-27T12:18:30.318Z,2.07
2018-11-27T12:20:59.935Z,1.83
2018-11-27T12:23:29.545Z,1.88
2018-11-27T12:25:59.142Z,1.73
2018-11-27T12:28:28.691Z,1.83
2018-11-27T12:30:58.363Z,1.81
2018-11-27T12:33:28.076Z,1.65
2018-11-27T12:35:57.635Z,1.72
2018-11-27T12:38:27.277Z,1.64
2018-11-27T12:40:56.875Z,1.72
2018-11-27T12:43:26.611Z,1.51
2018-11-27T12:45:57.839Z,1.55
2018-11-27T12:48:30.016Z,1.46
2018-11-27T12:51:02.318Z,1.34
2018-11-27T12:53:32.078Z,1.29
2018-11-27T12:56:01.890Z,1.12
2018-11-27T12:58:33.644Z,1.20
2018-11-27T13:01:09.346Z,1.12
2018-11-27T13:03:35.280Z,1.12
2018-11-27T13:06:06.075Z,1.14
2018-11-27T13:08:35.852Z,1.09
2018-11-27T13:11:11.574Z,0.99
2018-11-27T13:13:39.851Z,0.94
2018-11-27T13:16:09.997Z,0.85
2018-11-27T13:18:40.295Z,0.85
2018-11-27T13:21:10.285Z,0.61
2018-11-27T13:23:39.933Z,0.64
2018-11-27T13:26:09.546Z,0.49
2018-11-27T13:28:39.193Z,0.59
2018-11-27T13:31:10.969Z,0.52
2018-11-27T13:33:50.854Z,0.52
2018-11-27T13:36:20.767Z,0.51
2018-11-27T13:38:50.395Z,0.39
2018-11-27T13:41:20.076Z,0.55
2018-11-27T13:43:49.793Z,0.51
2018-11-27T13:46:19.393Z,0.51
2018-11-27T13:48:48.917Z,0.55
2018-11-27T13:51:18.745Z,0.46
2018-11-27T13:53:48.360Z,0.43
2018-11-27T13:56:18.014Z,0.48
2018-11-27T13:58:47.692Z,0.49
2018-11-27T14:01:17.234Z,0.45
2018-11-27T14:03:46.940Z,0.37
2018-11-27T14:06:16.646Z,0.45
2018-11-27T14:08:46.377Z,0.40
2018-11-27T14:11:19.178Z,0.37
2018-11-27T14:13:46.079Z,0.43
2018-11-27T14:16:15.788Z,0.42
2018-11-27T14:18:45.601Z,0.32
2018-11-27T14:21:15.303Z,0.33
2018-11-27T14:23:46.699Z,0.30
2018-11-27T14:26:16.462Z,0.21
2018-11-27T14:28:46.107Z,0.26
2018-11-27T14:31:15.586Z,0.25
2018-11-27T14:33:45.183Z,0.34
2018-11-27T14:36:14.835Z,0.28
2018-11-27T14:38:44.497Z,0.28
2018-11-27T14:41:14.148Z,0.25
2018-11-27T14:43:43.850Z,0.18
2018-11-27T14:46:13.461Z,0.23
2018-11-27T14:48:43.032Z,0.30
2018-11-27T14:51:12.771Z,0.24
2018-11-27T14:53:42.321Z,0.24
2018-11-27T14:56:12.040Z,0.24
2018-11-27T14:58:41.851Z,0.19
2018-11-27T15:01:11.667Z,0.22
2018-11-27T15:03:41.274Z,0.24
2018-11-27T15:06:10.921Z,0.26
2018-11-27T15:08:40.915Z,0.27
2018-11-27T15:11:12.802Z,0.30
2018-11-27T15:13:40.169Z,0.18
2018-11-27T15:16:09.921Z,0.21
2018-11-27T15:18:40.031Z,0.27
2018-11-27T15:21:09.702Z,0.19
2018-11-27T15:23:39.451Z,0.23
2018-11-27T15:26:09.190Z,0.20
2018-11-27T15:28:38.859Z,0.18
2018-11-27T15:31:08.627Z,0.19
2018-11-27T15:33:38.185Z,0.13
2018-11-27T15:36:08.035Z,0.12
2018-11-27T15:38:37.797Z,0.18
2018-11-27T15:41:08.027Z,0.12
2018-11-27T15:43:37.728Z,0.17
2018-11-27T15:46:07.352Z,0.19
2018-11-27T15:48:36.982Z,0.13
2018-11-27T15:51:06.842Z,0.14
2018-11-27T15:53:36.389Z,0.15
2018-11-27T15:56:06.293Z,0.15
2018-11-27T15:58:35.953Z,0.16
2018-11-27T16:01:05.592Z,0.10
2018-11-27T16:03:35.218Z,0.14
2018-11-27T16:06:04.882Z,0.23
2018-11-27T16:08:34.708Z,0.21
2018-11-27T16:11:04.408Z,0.16
2018-11-27T16:13:34.005Z,0.13
2018-11-27T16:16:03.648Z,0.16
2018-11-27T16:18:41.849Z,0.14
2018-11-27T16:21:19.428Z,0.15
2018-11-27T16:23:50.894Z,0.07
2018-11-27T16:26:27.092Z,0.10
2018-11-27T16:29:01.347Z,0.16
2018-11-27T16:31:35.888Z,0.12
2018-11-27T16:34:07.205Z,0.13
2018-11-27T16:36:36.843Z,0.08
2018-11-27T16:39:12.237Z,0.20
2018-11-27T16:41:41.903Z,0.16
2018-11-27T16:44:11.988Z,0.14
2018-11-27T16:46:41.588Z,0.13
2018-11-27T16:49:11.196Z,0.16
2018-11-27T16:51:41.102Z,0.07
2018-11-27T16:54:17.406Z,0.19
2018-11-27T16:56:47.489Z,0.23
2018-11-27T16:59:17.278Z,0.17
2018-11-27T17:01:47.011Z,0.21
2018-11-27T17:04:16.641Z,0.20
2018-11-27T17:06:46.296Z,0.20
2018-11-27T17:09:15.954Z,0.20
2018-11-27T17:11:45.639Z,0.17
2018-11-27T17:14:15.391Z,0.29
2018-11-27T17:16:45.103Z,0.22
2018-11-27T17:19:14.796Z,0.22
2018-11-27T17:21:44.507Z,0.23
2018-11-27T17:24:14.258Z,0.28
2018-11-27T17:26:48.106Z,0.35
2018-11-27T17:29:18.943Z,0.34
2018-11-27T17:31:48.618Z,0.30
2018-11-27T17:34:18.511Z,0.30
2018-11-27T17:36:48.221Z,0.29
2018-11-27T17:39:17.957Z,0.32
2018-11-27T17:41:47.572Z,0.30
2018-11-27T17:44:18.267Z,0.37
2018-11-27T17:46:48.041Z,0.45
2018-11-27T17:49:18.768Z,0.45
2018-11-27T17:51:48.421Z,0.41
2018-11-27T17:54:19.191Z,0.40
2018-11-27T17:56:49.943Z,0.50
2018-11-27T17:59:19.687Z,0.42
2018-11-27T18:01:49.419Z,0.37
2018-11-27T18:04:19.122Z,0.33
2018-11-27T18:06:48.935Z,0.29
2018-11-27T18:09:18.783Z,0.31
2018-11-27T18:11:48.901Z,0.33
2018-11-27T18:14:24.823Z,0.31
2018-11-27T18:16:55.736Z,0.27
2018-11-27T18:19:25.822Z,0.27
2018-11-27T18:22:00.340Z,0.30
2018-11-27T18:24:30.870Z,0.27
2018-11-27T18:27:00.641Z,0.26
2018-11-27T18:29:34.776Z,0.28
2018-11-27T18:32:08.138Z,0.34
2018-11-27T18:34:41.751Z,0.31
2018-11-27T18:37:15.383Z,0.34
2018-11-27T18:39:44.976Z,0.28
2018-11-27T18:42:15.059Z,0.35
2018-11-27T18:44:45.931Z,0.31
2018-11-27T18:47:17.342Z,0.27
2018-11-27T18:49:48.673Z,0.27
2018-11-27T18:52:20.714Z,0.40
2018-11-27T18:54:52.166Z,0.34
2018-11-27T18:57:22.520Z,0.34
2018-11-27T19:00:02.196Z,0.34
2018-11-27T19:02:36.689Z,0.29
2018-11-27T19:05:08.523Z,0.37
2018-11-27T19:07:39.337Z,0.34
2018-11-27T19:10:21.139Z,0.31
2018-11-27T19:12:52.716Z,0.30
2018-11-27T19:15:36.388Z,0.33
2018-11-27T19:18:20.140Z,0.36
2018-11-27T19:20:50.485Z,0.37
2018-11-27T19:23:26.946Z,0.30
2018-11-27T19:26:03.309Z,0.38
2018-11-27T19:28:33.670Z,0.34
2018-11-27T19:31:09.493Z,0.37
2018-11-27T19:33:39.749Z,0.39
2018-11-27T19:38:45.137Z,0.36
2018-11-27T19:41:18.185Z,0.37
2018-11-27T19:43:51.784Z,0.28
2018-11-27T19:46:23.764Z,0.35
2018-11-27T19:48:54.986Z,0.29
2018-11-27T19:51:30.018Z,0.38
2018-11-27T19:54:03.111Z,0.33
2018-11-27T19:56:36.294Z,0.32
2018-11-27T19:59:07.836Z,0.26
2018-11-27T20:01:41.628Z,0.24
2018-11-27T20:04:16.611Z,0.24
2018-11-27T20:06:52.807Z,0.31
2018-11-27T20:09:33.371Z,0.32
2018-11-27T20:12:08.843Z,0.31
2018-11-27T20:14:43.537Z,0.28
2018-11-27T20:17:16.038Z,0.32
2018-11-27T20:19:50.562Z,0.33
2018-11-27T20:22:21.773Z,0.35
2018-11-27T20:24:54.666Z,0.27
2018-11-27T20:27:24.555Z,0.30
2018-11-27T20:29:54.499Z,0.35
2018-11-27T20:32:27.402Z,0.40
2018-11-27T20:34:58.405Z,0.36
2018-11-27T20:37:28.149Z,0.33
2018-11-27T20:39:59.392Z,0.37
2018-11-27T20:42:33.624Z,0.35
2018-11-27T20:45:19.313Z,0.37
2018-11-27T20:47:45.634Z,0.43
2018-11-27T20:50:21.474Z,0.41
2018-11-27T20:52:51.175Z,0.38
2018-11-27T20:55:22.815Z,0.36
2018-11-27T20:58:02.064Z,0.41
2018-11-27T21:00:39.913Z,0.36
2018-11-27T21:03:12.821Z,0.29
2018-11-27T21:05:42.578Z,0.28
2018-11-27T21:08:12.216Z,0.30
2018-11-27T21:10:46.791Z,0.31
2018-11-27T21:13:18.645Z,0.35
2018-11-27T21:15:48.486Z,0.31
2018-11-27T21:18:18.792Z,0.40
2018-11-27T21:20:51.803Z,0.46
2018-11-27T21:23:23.280Z,0.42
2018-11-27T21:25:56.432Z,0.47
2018-11-27T21:28:24.170Z,0.39
2018-11-27T21:30:53.978Z,0.36
2018-11-27T21:33:26.143Z,0.38
2018-11-27T21:35:59.548Z,0.35
2018-11-27T21:38:34.829Z,0.39
2018-11-27T21:41:08.446Z,0.37
2018-11-27T21:43:40.036Z,0.45
2018-11-27T21:46:16.105Z,0.42
2018-11-27T21:48:45.888Z,0.39
2018-11-27T21:51:20.039Z,0.37
2018-11-27T21:53:56.784Z,0.37
2018-11-27T21:56:28.124Z,0.42
2018-11-27T21:58:57.685Z,0.50
2018-11-27T22:01:36.942Z,0.42
2018-11-27T22:04:06.978Z,0.42
2018-11-27T22:06:36.944Z,0.40
2018-11-27T22:09:08.251Z,0.46
2018-11-27T22:11:38.251Z,0.60
2018-11-27T22:14:08.374Z,0.52
2018-11-27T22:16:38.074Z,0.51
2018-11-27T22:19:11.261Z,0.52
2018-11-27T22:21:41.076Z,0.59
2018-11-27T22:24:11.194Z,0.53
2018-11-27T22:26:41.000Z,0.56
2018-11-27T22:29:10.945Z,0.49
2018-11-27T22:31:40.529Z,0.49
2018-11-27T22:34:10.227Z,0.49
2018-11-27T22:36:39.937Z,0.56
2018-11-27T22:39:10.311Z,0.53
2018-11-27T22:41:39.915Z,0.48
2018-11-27T22:44:09.643Z,0.51
2018-11-27T22:46:39.685Z,0.52
2018-11-27T22:49:09.903Z,0.56
2018-11-27T22:51:39.512Z,0.55
2018-11-27T22:54:09.127Z,0.51
2018-11-27T22:56:38.836Z,0.49
2018-11-27T22:59:08.463Z,0.57
2018-11-27T23:01:41.140Z,0.59
2018-11-27T23:04:10.827Z,0.50
2018-11-27T23:06:40.538Z,0.50
2018-11-27T23:09:10.546Z,0.57
2018-11-27T23:11:40.145Z,0.56
2018-11-27T23:14:09.785Z,0.58
2018-11-27T23:16:39.468Z,0.62
2018-11-27T23:19:09.177Z,0.56
2018-11-27T23:21:38.837Z,0.56
2018-11-27T23:24:08.591Z,0.50
2018-11-27T23:26:38.218Z,0.51
2018-11-27T23:29:07.908Z,0.53
2018-11-27T23:31:37.621Z,0.45
2018-11-27T23:34:07.292Z,0.51
2018-11-27T23:36:36.952Z,0.51
2018-11-27T23:39:08.790Z,0.52
2018-11-27T23:41:38.491Z,0.61
2018-11-27T23:44:08.206Z,0.61
2018-11-27T23:46:37.806Z,0.60
2018-11-27T23:49:07.454Z,0.54
2018-11-27T23:51:37.003Z,0.47
2018-11-27T23:54:07.174Z,0.46
2018-11-27T23:56:36.815Z,0.46
2018-11-27T23:59:06.547Z,0.49
